Callands, Virginia
Current Conditions -  °F | °C
As of 8:53 PM on Thursday 20 Nov 2014 (Local Time) from KDAN Reporting Station
Clear Clear  
Wind Chill: 42°   Ceiling: Unl
Heat Index: 44°   Visibility: 10mi
Dew Point: 21°   Wind: 5mph
Humidity: 40%   Direction: 270°W
Pressure: 30.1"   Gusts: NA
Location:  36.82°N, 79.59°W
Report Text: KDAN 210153Z AUTO 27004KT 10SM CLR 07/M06 A3010 RMK AO2 SLP189 T00671061
Loading
Personal Weather Stations






























Interactive Weather Map New forecast layout! Learn more

10-Day Weather Forecast

Advertisements
Track Severe Weather on mobile